Time;durP1;ratioP1;P1;durP2;ratioP2;P2;SDS_P1;SDS_P2;PMS_P1;PMS_P2;Temp;Humidity;BMP_temperature;BMP_pressure;BME280_temperature;BME280_humidity;BME280_pressure;Samples;Min_cycle;Max_cycle;Signal;HPM_P1;HPM_P2
2021/10/09 00:00:08;;;;;;;2.95;2.40;;;21.80;51.70;;;;;;4964784;28;20423;-67
2021/10/09 00:02:34;;;;;;;3.15;2.47;;;21.80;51.80;;;;;;4982728;28;20391;-68
2021/10/09 00:05:00;;;;;;;3.10;2.60;;;21.80;51.70;;;;;;4982860;28;20965;-68
2021/10/09 00:07:26;;;;;;;2.97;2.50;;;21.80;51.70;;;;;;4965186;28;20402;-68
2021/10/09 00:09:53;;;;;;;3.25;2.50;;;21.80;51.60;;;;;;4982955;28;20411;-65
2021/10/09 00:12:19;;;;;;;2.58;2.30;;;21.80;51.80;;;;;;4982502;28;20449;-67
2021/10/09 00:14:44;;;;;;;3.83;2.57;;;21.80;51.80;;;;;;4982630;28;20448;-65
2021/10/09 00:17:14;;;;;;;3.40;2.40;;;21.80;51.70;;;;;;4983073;28;20398;-70
2021/10/09 00:19:40;;;;;;;3.03;2.30;;;21.80;51.80;;;;;;4983290;28;20403;-71
2021/10/09 00:22:06;;;;;;;3.22;2.65;;;21.80;51.70;;;;;;4964741;28;20407;-68
2021/10/09 00:24:32;;;;;;;2.90;2.47;;;21.70;51.60;;;;;;4982397;28;20517;-71
2021/10/09 00:26:58;;;;;;;3.67;2.75;;;21.70;51.70;;;;;;4982658;28;20398;-66
2021/10/09 00:29:23;;;;;;;3.50;2.60;;;21.70;51.70;;;;;;4982725;28;20882;-65
2021/10/09 00:31:49;;;;;;;2.80;2.35;;;21.70;51.60;;;;;;4982470;28;20472;-68
2021/10/09 00:34:15;;;;;;;3.30;2.73;;;21.70;51.70;;;;;;4982276;28;20410;-67
2021/10/09 00:36:40;;;;;;;3.20;2.53;;;21.70;51.70;;;;;;4982201;28;20794;-67
2021/10/09 00:39:07;;;;;;;2.70;2.40;;;21.70;51.70;;;;;;4981997;28;20766;-67
2021/10/09 00:41:33;;;;;;;2.77;2.40;;;21.70;51.70;;;;;;4982629;28;20434;-67
2021/10/09 00:44:28;;;;;;;3.10;2.38;;;21.60;51.40;;;;;;4982526;28;20383;-72
2021/10/09 00:46:59;;;;;;;2.60;2.40;;;21.70;51.60;;;;;;4969678;28;20406;-71
2021/10/09 00:49:25;;;;;;;3.03;2.50;;;21.60;51.50;;;;;;4982396;28;20402;-69
2021/10/09 00:51:51;;;;;;;2.60;2.28;;;21.60;51.40;;;;;;4982531;28;20402;-70
2021/10/09 00:54:19;;;;;;;2.60;2.30;;;21.60;51.50;;;;;;4983506;28;20402;-68
2021/10/09 00:56:47;;;;;;;2.95;2.40;;;21.60;51.50;;;;;;4986587;28;20827;-71
2021/10/09 00:59:14;;;;;;;2.50;2.20;;;21.60;51.60;;;;;;4968687;28;20419;-70
2021/10/09 01:01:41;;;;;;;2.30;2.08;;;21.60;51.40;;;;;;4968565;28;20434;-70
2021/10/09 01:04:08;;;;;;;3.30;2.25;;;21.60;51.60;;;;;;4985823;28;21033;-69
2021/10/09 01:06:34;;;;;;;4.90;2.40;;;21.60;51.50;;;;;;4968209;28;20854;-70
2021/10/09 01:09:03;;;;;;;2.28;2.00;;;21.60;51.60;;;;;;4985941;28;20417;-69
2021/10/09 01:11:30;;;;;;;2.50;2.13;;;21.60;51.50;;;;;;4985756;28;20398;-71
2021/10/09 01:13:56;;;;;;;2.90;2.30;;;21.60;51.50;;;;;;4986163;28;20782;-70
2021/10/09 01:16:27;;;;;;;3.05;2.30;;;21.60;51.50;;;;;;4983978;28;20414;-70
2021/10/09 01:18:55;;;;;;;2.50;2.03;;;21.50;51.40;;;;;;4984665;28;20461;-70
2021/10/09 01:21:22;;;;;;;2.80;2.13;;;21.50;51.40;;;;;;4968034;28;20891;-69
2021/10/09 01:23:49;;;;;;;2.35;2.03;;;21.50;51.50;;;;;;4985296;28;20881;-68
2021/10/09 01:26:16;;;;;;;2.22;2.03;;;21.50;51.30;;;;;;4985518;28;20390;-69
2021/10/09 01:28:49;;;;;;;2.58;2.10;;;21.50;51.60;;;;;;4985651;28;20390;-70
2021/10/09 01:31:16;;;;;;;2.58;2.10;;;21.50;51.40;;;;;;4985809;28;20798;-70
2021/10/09 01:33:42;;;;;;;2.60;2.10;;;21.50;51.40;;;;;;4985567;28;20386;-70
2021/10/09 01:36:07;;;;;;;3.10;2.20;;;21.50;51.40;;;;;;4968010;28;21177;-67
2021/10/09 01:38:35;;;;;;;2.90;2.20;;;21.50;51.50;;;;;;4985095;28;20415;-69
2021/10/09 01:41:02;;;;;;;2.78;2.05;;;21.40;51.30;;;;;;4967991;28;20926;-69
2021/10/09 01:43:28;;;;;;;2.73;2.10;;;21.50;51.40;;;;;;4985594;28;20426;-70
2021/10/09 01:45:53;;;;;;;2.25;1.67;;;21.50;51.30;;;;;;4985365;28;20402;-70
2021/10/09 01:48:31;;;;;;;2.40;2.03;;;21.40;51.20;;;;;;4984970;28;20959;-70
2021/10/09 01:50:57;;;;;;;2.28;2.00;;;21.40;51.40;;;;;;4985355;28;20742;-69
2021/10/09 01:53:23;;;;;;;2.40;2.13;;;21.40;51.40;;;;;;4967323;28;20406;-69
2021/10/09 01:55:49;;;;;;;2.42;2.08;;;21.40;51.30;;;;;;4984692;28;20394;-69
2021/10/09 01:58:14;;;;;;;2.40;2.20;;;21.40;51.30;;;;;;4984668;28;20413;-69
2021/10/09 02:00:40;;;;;;;2.37;2.00;;;21.40;51.40;;;;;;4984755;28;20434;-67
2021/10/09 02:03:07;;;;;;;2.50;1.98;;;21.40;51.30;;;;;;4984983;28;20751;-70
2021/10/09 02:05:34;;;;;;;2.40;2.00;;;21.40;51.30;;;;;;4984378;28;20450;-69
2021/10/09 02:08:00;;;;;;;2.30;2.10;;;21.30;51.20;;;;;;4985102;28;20383;-68
2021/10/09 02:10:26;;;;;;;2.10;1.90;;;21.40;51.30;;;;;;4984603;28;20409;-70
2021/10/09 02:12:53;;;;;;;2.53;1.92;;;21.40;51.30;;;;;;4984729;28;20391;-70
2021/10/09 02:18:23;;;;;;;2.83;2.00;;;21.30;51.30;;;;;;4985334;28;20460;-69
2021/10/09 02:26:16;;;;;;;2.90;2.00;;;21.30;51.00;;;;;;4984261;28;20389;-70
2021/10/09 02:28:42;;;;;;;1.90;1.70;;;21.30;51.20;;;;;;4984592;28;20402;-69
2021/10/09 02:31:07;;;;;;;2.38;1.95;;;21.30;51.20;;;;;;4984547;28;20402;-68
2021/10/09 02:33:33;;;;;;;2.15;1.95;;;21.30;51.10;;;;;;4984496;28;20390;-70
2021/10/09 02:35:59;;;;;;;2.00;1.70;;;21.30;51.00;;;;;;4984427;28;20457;-70
2021/10/09 02:38:24;;;;;;;2.10;1.80;;;21.30;51.20;;;;;;4983654;28;20449;-70
2021/10/09 02:40:50;;;;;;;2.20;2.00;;;21.30;51.20;;;;;;4984210;28;20430;-70
2021/10/09 02:43:16;;;;;;;2.20;1.80;;;21.30;51.20;;;;;;4967051;28;20398;-69
2021/10/09 02:45:41;;;;;;;2.40;2.03;;;21.30;51.10;;;;;;4984231;28;20914;-70
2021/10/09 02:48:08;;;;;;;2.30;1.87;;;21.30;51.10;;;;;;4967155;28;20739;-69
2021/10/09 02:50:34;;;;;;;2.30;1.92;;;21.30;51.20;;;;;;4966407;28;20469;-69
2021/10/09 02:53:00;;;;;;;2.30;1.75;;;21.20;51.00;;;;;;4984039;28;20394;-69
2021/10/09 02:55:26;;;;;;;2.10;1.80;;;21.20;50.90;;;;;;4983629;28;20414;-68
2021/10/09 02:57:52;;;;;;;2.80;2.05;;;21.20;51.10;;;;;;4983965;28;20386;-68
2021/10/09 03:00:20;;;;;;;2.00;1.80;;;21.20;51.10;;;;;;4983648;28;20422;-70
2021/10/09 03:02:45;;;;;;;2.25;1.88;;;21.20;51.00;;;;;;4983567;28;20473;-69
2021/10/09 03:05:12;;;;;;;2.70;2.05;;;21.20;51.00;;;;;;4983738;28;20846;-69
2021/10/09 03:07:39;;;;;;;1.80;1.52;;;21.20;51.00;;;;;;4983939;28;20529;-70
2021/10/09 03:10:06;;;;;;;2.13;1.70;;;21.20;51.00;;;;;;4965546;28;20482;-67
2021/10/09 03:12:32;;;;;;;1.83;1.52;;;21.20;51.10;;;;;;4982857;28;20399;-68
2021/10/09 03:14:58;;;;;;;2.00;1.80;;;21.20;51.10;;;;;;4966330;28;20402;-71
2021/10/09 03:17:23;;;;;;;2.30;1.83;;;21.20;51.10;;;;;;4982812;28;20809;-68
2021/10/09 03:19:49;;;;;;;2.10;1.67;;;21.20;51.00;;;;;;4983555;28;20496;-70
2021/10/09 03:22:15;;;;;;;2.22;1.70;;;21.20;51.00;;;;;;4982837;28;20407;-70
2021/10/09 03:24:41;;;;;;;1.87;1.70;;;21.20;50.90;;;;;;4983480;28;20414;-69
2021/10/09 03:27:07;;;;;;;3.40;1.90;;;21.10;51.00;;;;;;4966060;28;20406;-69
2021/10/09 03:29:32;;;;;;;2.08;1.70;;;21.10;50.90;;;;;;4983217;28;20763;-69
2021/10/09 03:31:58;;;;;;;2.42;1.80;;;21.10;50.80;;;;;;4965829;28;20406;-68
2021/10/09 03:34:24;;;;;;;2.10;1.80;;;21.10;51.00;;;;;;4965412;28;20481;-68
2021/10/09 03:36:50;;;;;;;2.08;1.88;;;21.10;50.90;;;;;;4983000;28;20410;-69
2021/10/09 03:39:19;;;;;;;2.07;1.80;;;21.10;51.00;;;;;;4982975;28;20409;-70
2021/10/09 03:41:51;;;;;;;2.40;1.80;;;21.10;50.90;;;;;;4965723;28;20771;-69
2021/10/09 03:44:16;;;;;;;1.55;1.45;;;21.10;50.90;;;;;;4982936;28;20394;-69
2021/10/09 03:46:45;;;;;;;2.45;1.60;;;21.10;50.90;;;;;;4982836;28;20912;-70
2021/10/09 03:54:30;;;;;;;2.78;1.77;;;21.10;51.00;;;;;;4982570;28;20441;-70
2021/10/09 03:56:55;;;;;;;2.20;1.80;;;21.00;51.00;;;;;;4982809;28;20394;-69
2021/10/09 03:59:21;;;;;;;2.03;1.70;;;21.00;50.80;;;;;;4965607;28;20414;-70
2021/10/09 04:01:47;;;;;;;2.20;1.80;;;21.00;50.90;;;;;;4982944;28;20410;-70
2021/10/09 04:04:12;;;;;;;2.13;1.70;;;21.00;50.90;;;;;;4982869;28;20479;-69
2021/10/09 04:06:38;;;;;;;2.65;1.73;;;21.00;50.80;;;;;;4964896;28;20411;-70
2021/10/09 04:09:03;;;;;;;2.38;1.73;;;21.00;50.90;;;;;;4965560;28;20390;-70
2021/10/09 04:11:29;;;;;;;2.20;1.70;;;21.00;50.90;;;;;;4965611;28;20414;-68
2021/10/09 04:13:55;;;;;;;2.05;1.70;;;21.00;50.70;;;;;;4982895;28;20405;-68
2021/10/09 04:16:20;;;;;;;2.20;1.63;;;21.10;51.00;;;;;;4982286;28;20403;-69
2021/10/09 04:18:46;;;;;;;2.13;1.70;;;21.00;50.90;;;;;;4982870;28;20406;-68
2021/10/09 04:21:12;;;;;;;1.83;1.53;;;21.00;50.90;;;;;;4982419;28;20427;-70
2021/10/09 04:23:37;;;;;;;2.00;1.70;;;21.00;50.90;;;;;;4965304;28;20763;-68
2021/10/09 04:26:03;;;;;;;1.57;1.40;;;21.00;50.80;;;;;;4964647;28;20402;-69
2021/10/09 04:28:29;;;;;;;1.80;1.60;;;21.00;50.90;;;;;;4966491;28;20414;-68
2021/10/09 04:30:54;;;;;;;2.10;1.73;;;21.00;50.80;;;;;;4986444;28;20473;-69
2021/10/09 04:33:20;;;;;;;1.65;1.55;;;21.00;50.90;;;;;;4968759;28;21200;-69
2021/10/09 04:35:46;;;;;;;2.10;1.60;;;21.00;50.90;;;;;;4986474;28;20481;-70
2021/10/09 04:38:11;;;;;;;1.88;1.52;;;21.00;50.60;;;;;;4968786;28;20438;-69
2021/10/09 04:40:38;;;;;;;1.83;1.50;;;21.00;50.80;;;;;;4986181;28;20472;-70
2021/10/09 04:43:04;;;;;;;2.00;1.30;;;20.90;50.70;;;;;;4986468;28;20480;-67
2021/10/09 04:45:30;;;;;;;1.90;1.50;;;21.00;50.80;;;;;;4986565;28;20390;-69
2021/10/09 04:47:56;;;;;;;2.17;1.38;;;21.00;50.80;;;;;;4986756;28;20801;-70
2021/10/09 04:50:21;;;;;;;1.70;1.50;;;20.90;50.70;;;;;;4968796;28;20813;-68
2021/10/09 04:52:47;;;;;;;2.70;1.60;;;20.90;50.80;;;;;;4986353;28;20794;-71
2021/10/09 04:55:13;;;;;;;2.30;1.60;;;20.90;50.80;;;;;;4986054;28;21023;-70
2021/10/09 04:57:39;;;;;;;1.90;1.60;;;20.90;50.70;;;;;;4986551;28;20413;-70
2021/10/09 05:00:06;;;;;;;1.67;1.48;;;20.90;50.80;;;;;;4986105;28;20418;-69
2021/10/09 05:02:32;;;;;;;2.80;1.35;;;20.90;50.80;;;;;;4968171;28;20394;-69
2021/10/09 05:04:57;;;;;;;2.20;1.40;;;20.90;50.60;;;;;;4968808;28;20511;-70
2021/10/09 05:07:23;;;;;;;1.77;1.52;;;20.90;50.80;;;;;;4985860;28;20433;-68
2021/10/09 05:09:50;;;;;;;1.97;1.40;;;20.90;50.50;;;;;;4968556;28;20832;-70
2021/10/09 05:12:16;;;;;;;1.88;1.60;;;20.90;50.80;;;;;;4968191;28;20418;-70
2021/10/09 05:14:42;;;;;;;2.55;1.60;;;20.90;50.90;;;;;;4985657;28;20875;-70
2021/10/09 05:17:08;;;;;;;2.53;1.50;;;20.80;50.80;;;;;;4985829;28;20813;-70
2021/10/09 05:19:34;;;;;;;1.58;1.42;;;20.90;50.90;;;;;;4985947;28;20394;-70
2021/10/09 05:21:59;;;;;;;2.07;1.43;;;20.90;50.70;;;;;;4986001;28;20402;-70
2021/10/09 05:24:25;;;;;;;2.20;1.40;;;20.90;50.80;;;;;;4984956;28;20406;-68
2021/10/09 05:26:51;;;;;;;5.13;1.67;;;20.90;50.90;;;;;;4985633;28;20390;-68
2021/10/09 05:29:18;;;;;;;4.03;1.80;;;20.90;50.30;;;;;;4985644;28;20394;-68
2021/10/09 05:31:47;;;;;;;3.47;1.73;;;20.90;50.60;;;;;;4968268;28;21522;-67
2021/10/09 05:34:13;;;;;;;8.35;1.73;;;20.90;51.20;;;;;;4985795;28;20391;-67
2021/10/09 05:36:39;;;;;;;3.00;1.50;;;20.90;51.60;;;;;;4984892;28;20411;-67
2021/10/09 05:39:05;;;;;;;4.63;1.75;;;20.90;51.80;;;;;;4985122;28;20867;-67
2021/10/09 05:41:30;;;;;;;5.10;1.70;;;20.90;51.90;;;;;;4967391;28;20457;-67
2021/10/09 05:43:56;;;;;;;3.17;1.73;;;20.80;51.00;;;;;;4985230;28;20394;-68
2021/10/09 05:46:23;;;;;;;4.60;1.53;;;20.90;51.60;;;;;;4967651;28;20410;-68
2021/10/09 05:48:49;;;;;;;6.43;1.83;;;20.90;52.70;;;;;;4967418;28;20399;-69
2021/10/09 05:59:07;;;;;;;4.88;1.80;;;20.80;52.20;;;;;;4984930;28;20430;-68
2021/10/09 07:01:04;;;;;;;4.38;1.70;;;20.90;56.30;;;;;;4984161;28;20498;-66
2021/10/09 07:03:30;;;;;;;6.05;1.88;;;20.90;56.00;;;;;;4967254;28;20480;-65
2021/10/09 07:05:56;;;;;;;4.57;1.70;;;20.90;55.80;;;;;;4966975;28;20556;-65
2021/10/09 07:08:21;;;;;;;7.40;2.10;;;20.90;55.70;;;;;;4966034;28;20882;-66
2021/10/09 07:10:49;;;;;;;5.77;1.87;;;20.90;55.70;;;;;;4983447;28;20445;-65
2021/10/09 07:13:15;;;;;;;5.20;1.80;;;20.90;54.10;;;;;;4966081;28;20398;-66
2021/10/09 07:15:41;;;;;;;10.30;2.50;;;20.80;55.30;;;;;;4983586;28;20518;-64
2021/10/09 07:18:12;;;;;;;6.10;2.00;;;20.80;54.50;;;;;;4983684;28;20382;-66
2021/10/09 07:20:39;;;;;;;3.58;1.73;;;20.90;55.20;;;;;;4965503;28;20427;-66
2021/10/09 07:23:07;;;;;;;4.22;2.33;;;20.90;55.60;;;;;;4966476;28;20403;-66
2021/10/09 07:25:36;;;;;;;7.20;2.30;;;20.80;55.50;;;;;;4965744;28;20403;-65
2021/10/09 07:28:02;;;;;;;5.65;1.83;;;20.80;55.40;;;;;;4965634;28;20394;-67
2021/10/09 07:30:28;;;;;;;6.00;1.95;;;20.80;55.30;;;;;;4981748;28;20437;-66
2021/10/09 07:32:54;;;;;;;6.38;1.90;;;20.80;54.70;;;;;;4965569;28;20422;-66
2021/10/09 07:35:19;;;;;;;4.83;2.07;;;20.80;55.00;;;;;;4983238;28;20406;-66
2021/10/09 07:37:45;;;;;;;5.60;1.70;;;20.80;54.90;;;;;;4982864;28;20935;-67
2021/10/09 07:40:12;;;;;;;7.80;2.07;;;20.80;54.50;;;;;;4965473;28;20526;-67
2021/10/09 07:42:37;;;;;;;6.07;2.00;;;20.90;54.30;;;;;;4965006;28;20394;-67
2021/10/09 07:45:04;;;;;;;7.37;2.23;;;20.80;54.10;;;;;;4982834;28;20403;-66
2021/10/09 07:47:30;;;;;;;4.38;1.73;;;20.80;54.20;;;;;;4965209;28;20477;-67
2021/10/09 07:49:56;;;;;;;8.90;2.40;;;20.80;54.20;;;;;;4982927;28;20434;-67
2021/10/09 07:52:22;;;;;;;3.50;2.00;;;20.80;54.30;;;;;;4983241;28;20858;-66
2021/10/09 07:54:47;;;;;;;5.57;2.05;;;20.80;54.10;;;;;;4982738;28;20553;-67
2021/10/09 07:57:13;;;;;;;5.57;1.90;;;20.80;54.10;;;;;;4983040;28;20394;-65
2021/10/09 07:59:38;;;;;;;4.97;2.20;;;20.80;54.10;;;;;;4982960;28;21631;-67
2021/10/09 08:02:05;;;;;;;4.10;1.67;;;20.80;54.10;;;;;;4982840;28;20406;-67
2021/10/09 08:04:31;;;;;;;3.70;2.00;;;20.90;54.10;;;;;;4965384;28;20456;-67
2021/10/09 08:06:57;;;;;;;4.95;2.03;;;20.80;54.10;;;;;;4982627;28;20398;-67
2021/10/09 08:09:25;;;;;;;5.10;2.10;;;20.90;54.20;;;;;;4983112;28;20410;-68
2021/10/09 08:11:52;;;;;;;4.03;2.08;;;20.90;54.20;;;;;;4982977;28;20422;-67
2021/10/09 08:14:18;;;;;;;5.05;2.10;;;20.90;54.20;;;;;;4982764;28;20390;-67
2021/10/09 08:16:43;;;;;;;3.00;2.00;;;20.90;54.20;;;;;;4982213;28;20397;-66
2021/10/09 08:19:09;;;;;;;4.00;2.10;;;21.00;54.20;;;;;;4965245;28;20402;-67
2021/10/09 08:21:40;;;;;;;4.82;2.17;;;21.00;54.20;;;;;;4982723;28;20418;-65
2021/10/09 08:27:04;;;;;;;3.38;2.05;;;21.00;54.10;;;;;;4982379;28;20402;-67
2021/10/09 08:40:13;;;;;;;4.18;2.40;;;21.10;53.90;;;;;;4982804;28;20441;-65
2021/10/09 08:42:39;;;;;;;5.30;2.40;;;21.10;53.90;;;;;;4982271;28;20406;-67
2021/10/09 08:45:06;;;;;;;4.28;2.55;;;21.10;53.80;;;;;;4964768;28;20394;-66
2021/10/09 08:47:34;;;;;;;5.03;2.67;;;21.10;53.70;;;;;;4982315;28;20445;-67
2021/10/09 08:50:01;;;;;;;4.97;2.95;;;21.20;53.70;;;;;;4964836;28;20409;-69
2021/10/09 08:52:27;;;;;;;7.15;3.22;;;21.20;53.50;;;;;;4982009;28;20490;-69
2021/10/09 08:54:53;;;;;;;6.65;3.28;;;21.10;53.60;;;;;;4981976;28;20387;-70
2021/10/09 08:57:24;;;;;;;7.70;3.40;;;21.20;53.40;;;;;;4965267;28;20417;-69
2021/10/09 08:59:55;;;;;;;6.32;3.35;;;21.20;53.10;;;;;;4982577;28;20399;-71
2021/10/09 09:02:28;;;;;;;7.53;3.35;;;21.20;53.00;;;;;;4982803;28;20863;-69
2021/10/09 09:40:10;;;;;;;6.90;3.20;;;21.30;52.20;;;;;;4982522;28;20434;-67
2021/10/09 09:42:52;;;;;;;5.05;2.70;;;21.30;52.00;;;;;;4967417;28;20406;-67
2021/10/09 09:45:26;;;;;;;5.23;3.10;;;21.30;51.80;;;;;;4967088;28;20497;-67
2021/10/09 09:47:57;;;;;;;5.28;2.72;;;21.30;52.00;;;;;;4966450;28;20417;-67
2021/10/09 09:50:23;;;;;;;6.05;3.28;;;21.30;52.20;;;;;;4965892;28;20410;-68
2021/10/09 09:52:49;;;;;;;4.88;3.53;;;21.30;52.00;;;;;;4984812;28;20394;-67
2021/10/09 09:55:17;;;;;;;5.78;4.05;;;21.30;51.30;;;;;;4967498;28;20441;-68
2021/10/09 09:57:43;;;;;;;6.07;3.70;;;21.30;50.60;;;;;;4984952;28;20390;-67
2021/10/09 10:00:12;;;;;;;5.80;3.65;;;21.30;50.80;;;;;;4984847;28;20493;-67
2021/10/09 10:02:47;;;;;;;5.53;2.95;;;21.40;50.30;;;;;;4984868;28;20448;-68
2021/10/09 10:05:13;;;;;;;4.80;2.40;;;21.40;51.10;;;;;;4967359;28;20662;-66
2021/10/09 10:07:40;;;;;;;4.05;2.97;;;21.40;51.80;;;;;;4965399;28;20442;-66
2021/10/09 10:10:07;;;;;;;5.93;3.35;;;21.40;50.80;;;;;;4965908;28;20820;-66
2021/10/09 10:12:33;;;;;;;4.43;2.70;;;21.40;51.10;;;;;;4965855;28;20402;-68
2021/10/09 10:14:59;;;;;;;4.47;2.73;;;21.40;51.70;;;;;;4982287;28;20397;-69
2021/10/09 10:17:45;;;;;;;5.82;2.80;;;21.40;51.20;;;;;;4982629;28;20874;-66
2021/10/09 10:20:12;;;;;;;7.13;3.03;;;21.40;52.70;;;;;;4964671;28;20485;-67
2021/10/09 10:22:40;;;;;;;5.60;3.30;;;21.40;52.80;;;;;;4964484;28;20430;-67
2021/10/09 10:25:15;;;;;;;7.95;3.40;;;21.40;52.70;;;;;;4964575;28;20430;-67
2021/10/09 10:27:41;;;;;;;7.43;4.07;;;21.40;52.70;;;;;;4982116;28;20386;-66
2021/10/09 10:30:16;;;;;;;6.25;3.10;;;21.40;52.70;;;;;;4982357;28;20450;-68
2021/10/09 10:32:56;;;;;;;5.28;3.58;;;21.40;52.70;;;;;;4982009;28;20394;-67
2021/10/09 10:35:33;;;;;;;7.68;3.80;;;21.40;52.60;;;;;;4965522;28;20413;-67
2021/10/09 10:38:03;;;;;;;8.93;4.10;;;21.40;52.80;;;;;;4965675;28;20410;-68
2021/10/09 10:40:53;;;;;;;6.57;4.00;;;21.40;52.80;;;;;;4965579;28;20430;-67
2021/10/09 10:46:37;;;;;;;8.77;4.40;;;21.40;52.60;;;;;;4983426;28;20402;-67
2021/10/09 10:49:19;;;;;;;10.03;4.43;;;21.50;52.80;;;;;;4965035;28;20403;-66
2021/10/09 10:52:10;;;;;;;11.70;4.43;;;21.50;52.80;;;;;;4982813;28;20835;-67
2021/10/09 10:54:39;;;;;;;19.73;5.70;;;21.50;52.70;;;;;;4982784;28;20410;-68
2021/10/09 10:57:07;;;;;;;23.35;5.90;;;21.40;52.70;;;;;;4965118;28;20406;-67
2021/10/09 10:59:37;;;;;;;19.50;6.53;;;21.60;54.20;;;;;;4964990;28;20463;-66
2021/10/09 11:02:16;;;;;;;16.52;6.60;;;21.70;55.20;;;;;;4982302;28;20464;-69
2021/10/09 11:05:01;;;;;;;16.75;6.78;;;21.80;56.70;;;;;;4982520;28;20398;-68
2021/10/09 11:07:35;;;;;;;19.30;6.72;;;21.80;55.30;;;;;;4982109;28;20403;-67
2021/10/09 11:10:08;;;;;;;14.18;6.40;;;21.80;54.90;;;;;;4964584;28;20399;-69
2021/10/09 11:12:48;;;;;;;18.80;6.55;;;21.80;54.90;;;;;;4965290;28;20553;-68
2021/10/09 11:15:20;;;;;;;14.70;6.72;;;21.70;52.00;;;;;;4982407;28;20751;-67
2021/10/09 11:17:56;;;;;;;13.63;6.40;;;21.70;52.10;;;;;;4982504;28;20453;-68
2021/10/09 11:20:27;;;;;;;13.45;5.45;;;21.70;51.70;;;;;;4982292;28;20962;-68
2021/10/09 11:22:56;;;;;;;11.98;5.32;;;21.70;53.00;;;;;;4964133;28;20736;-67
2021/10/09 11:25:31;;;;;;;12.00;5.25;;;21.70;53.30;;;;;;4963767;28;20398;-67
2021/10/09 11:28:02;;;;;;;14.18;5.45;;;21.80;53.90;;;;;;4981914;28;20402;-68
2021/10/09 11:30:29;;;;;;;14.45;5.30;;;21.90;53.60;;;;;;4982054;28;20402;-67
2021/10/09 11:32:56;;;;;;;16.27;5.40;;;21.90;54.50;;;;;;4981887;28;20405;-68
2021/10/09 11:35:33;;;;;;;14.85;5.38;;;22.00;54.50;;;;;;4964358;28;20449;-68
2021/10/09 11:38:02;;;;;;;13.93;4.95;;;22.00;54.30;;;;;;4964014;28;21583;-66
2021/10/09 13:46:56;;;;;;;30.77;11.93;;;22.70;51.60;;;;;;5082778;27;20386;-65
2021/10/09 13:49:22;;;;;;;23.87;10.50;;;22.60;51.60;;;;;;5072782;28;20396;-65
2021/10/09 13:51:48;;;;;;;31.25;10.85;;;22.60;51.50;;;;;;5068436;28;20930;-65
2021/10/09 13:54:13;;;;;;;29.13;10.70;;;22.60;53.00;;;;;;5066718;28;20408;-65
2021/10/09 13:56:39;;;;;;;31.23;11.00;;;22.70;53.70;;;;;;5099101;28;20399;-65
2021/10/09 13:59:04;;;;;;;27.40;10.90;;;22.80;53.60;;;;;;5074614;28;20467;-66
2021/10/09 14:01:30;;;;;;;25.57;10.07;;;22.80;53.20;;;;;;5064544;28;20393;-65
2021/10/09 14:03:56;;;;;;;27.13;10.27;;;22.80;53.10;;;;;;5066638;28;20395;-65
2021/10/09 14:06:21;;;;;;;22.53;9.70;;;22.90;52.90;;;;;;5065893;28;20439;-65
2021/10/09 14:08:48;;;;;;;24.40;9.90;;;22.90;53.30;;;;;;5066638;28;20898;-65
2021/10/09 14:11:14;;;;;;;22.35;9.45;;;22.90;52.70;;;;;;5065605;28;20403;-65
2021/10/09 14:13:39;;;;;;;27.65;9.70;;;22.90;52.20;;;;;;5065975;28;20389;-66
2021/10/09 14:16:07;;;;;;;28.77;10.50;;;22.80;53.00;;;;;;5065644;28;20944;-65
2021/10/09 14:18:33;;;;;;;20.90;9.43;;;22.90;52.60;;;;;;5066110;28;20388;-67
2021/10/09 14:20:58;;;;;;;21.37;8.87;;;22.90;53.00;;;;;;5065791;28;20429;-65
2021/10/09 14:23:30;;;;;;;29.20;9.10;;;22.90;52.90;;;;;;5065681;28;20398;-65
2021/10/09 14:25:56;;;;;;;23.38;9.48;;;22.90;52.60;;;;;;5075628;28;20488;-65
2021/10/09 14:28:22;;;;;;;23.38;8.65;;;22.90;53.50;;;;;;5075287;28;20792;-65
2021/10/09 14:30:50;;;;;;;28.13;8.77;;;22.90;52.80;;;;;;5075918;28;20402;-64
2021/10/09 14:33:16;;;;;;;26.85;9.30;;;23.00;53.10;;;;;;5072362;28;21174;-65
2021/10/09 14:35:42;;;;;;;22.40;8.48;;;23.00;52.60;;;;;;5067174;28;20788;-66
2021/10/09 14:38:07;;;;;;;18.08;8.40;;;23.00;52.70;;;;;;5065474;28;20385;-65
2021/10/09 14:40:33;;;;;;;21.10;8.10;;;23.00;52.50;;;;;;5067669;28;20403;-66
2021/10/09 14:42:59;;;;;;;18.17;8.23;;;23.00;52.90;;;;;;5063818;28;20425;-66
2021/10/09 14:45:27;;;;;;;20.07;8.07;;;23.10;52.90;;;;;;5071741;28;20476;-65
2021/10/09 15:20:09;;;;;;;17.77;6.38;;;24.90;48.00;;;;;;5073779;28;20387;-65
2021/10/09 15:22:35;;;;;;;17.38;6.28;;;25.00;48.10;;;;;;5073458;28;20387;-65
2021/10/09 15:25:02;;;;;;;55.23;11.00;;;24.90;47.10;;;;;;5055639;28;20403;-65
2021/10/09 15:27:29;;;;;;;26.03;8.50;;;24.90;47.90;;;;;;5054826;28;20824;-66
2021/10/09 15:29:55;;;;;;;23.63;7.05;;;24.90;47.50;;;;;;5055678;28;20859;-65
2021/10/09 15:32:21;;;;;;;24.97;7.43;;;24.80;48.20;;;;;;5055286;28;20392;-65
2021/10/09 15:34:46;;;;;;;21.17;6.97;;;24.80;47.80;;;;;;5073461;28;20453;-65
2021/10/09 15:37:12;;;;;;;18.40;6.87;;;24.70;47.50;;;;;;5072880;28;20395;-65
2021/10/09 15:39:38;;;;;;;17.27;6.28;;;24.70;47.40;;;;;;5073430;28;20778;-64
2021/10/09 15:42:05;;;;;;;18.23;6.80;;;24.70;47.50;;;;;;5073439;28;20392;-63
2021/10/09 15:44:32;;;;;;;17.52;6.32;;;24.60;47.80;;;;;;5072942;28;20380;-65
2021/10/09 15:46:58;;;;;;;17.13;5.78;;;24.60;47.60;;;;;;5069914;28;20428;-67
2021/10/09 15:49:24;;;;;;;20.30;6.20;;;24.50;47.80;;;;;;5063440;28;20427;-68
2021/10/09 15:51:50;;;;;;;18.50;5.88;;;24.50;48.10;;;;;;5072580;28;22482;-66
2021/10/09 15:54:16;;;;;;;17.00;6.07;;;24.50;48.40;;;;;;5064973;28;20414;-67
2021/10/09 15:56:41;;;;;;;17.67;6.15;;;24.50;48.30;;;;;;5063451;28;20431;-64
2021/10/09 15:59:07;;;;;;;22.97;6.10;;;24.40;47.90;;;;;;5081281;28;20382;-67
2021/10/09 16:01:33;;;;;;;20.85;5.90;;;24.40;48.50;;;;;;5081244;28;20396;-66
2021/10/09 16:04:01;;;;;;;18.73;6.20;;;24.40;47.80;;;;;;5080194;28;20449;-65
2021/10/09 16:06:27;;;;;;;20.77;6.32;;;24.40;47.40;;;;;;5064232;28;20773;-65
2021/10/09 16:08:53;;;;;;;15.13;6.35;;;24.40;47.50;;;;;;5081088;28;20899;-65
2021/10/09 16:11:19;;;;;;;20.87;6.57;;;24.40;47.50;;;;;;5062181;28;20542;-65
2021/10/09 16:13:44;;;;;;;18.52;6.50;;;24.40;47.90;;;;;;5082509;28;20928;-65
2021/10/09 16:16:10;;;;;;;14.67;6.37;;;24.30;47.30;;;;;;5081565;28;20419;-65
2021/10/09 16:18:36;;;;;;;16.35;6.75;;;24.30;47.10;;;;;;5080255;28;20908;-65
2021/10/09 16:21:02;;;;;;;16.42;6.80;;;24.30;47.00;;;;;;5063707;28;20390;-65
2021/10/09 16:23:27;;;;;;;12.13;6.15;;;24.30;46.90;;;;;;5080453;28;20402;-67
2021/10/09 16:25:53;;;;;;;20.08;6.53;;;24.30;47.40;;;;;;5081044;28;20486;-66
2021/10/09 16:28:19;;;;;;;14.80;6.00;;;24.30;47.30;;;;;;5082075;28;20385;-67
2021/10/09 16:30:46;;;;;;;17.60;6.20;;;24.30;47.20;;;;;;5062311;28;20388;-65
2021/10/09 16:33:12;;;;;;;17.80;6.03;;;24.20;47.00;;;;;;5080810;28;20430;-66
2021/10/09 16:35:39;;;;;;;12.77;5.88;;;24.20;48.40;;;;;;5081658;28;20392;-65
2021/10/09 16:38:05;;;;;;;16.83;6.10;;;24.20;48.50;;;;;;5076785;28;20729;-66
2021/10/09 16:40:31;;;;;;;18.10;6.20;;;24.20;49.00;;;;;;5080852;28;20407;-66
2021/10/09 16:42:57;;;;;;;17.27;6.13;;;24.10;49.30;;;;;;5080088;28;20745;-65
2021/10/09 16:45:23;;;;;;;14.15;6.00;;;24.10;49.70;;;;;;5081053;28;20404;-65
2021/10/09 16:47:49;;;;;;;17.40;6.37;;;24.00;49.60;;;;;;5080838;28;20469;-67
2021/10/09 16:50:15;;;;;;;14.35;5.82;;;24.00;49.70;;;;;;5080178;28;20382;-65
2021/10/09 16:52:40;;;;;;;16.65;6.05;;;24.00;49.80;;;;;;5081804;28;20408;-66
2021/10/09 16:55:07;;;;;;;16.27;6.15;;;23.90;50.00;;;;;;5080658;28;20388;-65
2021/10/09 16:57:32;;;;;;;12.43;5.45;;;23.90;50.00;;;;;;5080005;28;20392;-66
2021/10/09 16:59:58;;;;;;;12.17;5.60;;;23.90;49.40;;;;;;5063894;28;20389;-68
2021/10/09 17:02:23;;;;;;;13.02;5.70;;;23.80;48.50;;;;;;5079686;28;20376;-66
2021/10/09 17:04:55;;;;;;;13.83;6.03;;;23.70;49.20;;;;;;5062925;28;20517;-67
2021/10/09 17:07:21;;;;;;;13.48;5.95;;;23.70;49.80;;;;;;5081169;28;20398;-66
2021/10/09 17:09:52;;;;;;;14.65;6.28;;;23.70;50.40;;;;;;5079999;28;20448;-66
2021/10/09 17:12:19;;;;;;;18.77;7.10;;;23.80;50.70;;;;;;5079548;28;21121;-65
2021/10/09 17:14:44;;;;;;;15.48;5.80;;;23.70;50.60;;;;;;5076150;28;20405;-66
2021/10/09 17:17:10;;;;;;;14.97;5.60;;;23.70;50.20;;;;;;5080190;28;20418;-66
2021/10/09 17:19:36;;;;;;;13.43;5.40;;;23.60;49.80;;;;;;5079340;28;20534;-66
2021/10/09 17:22:01;;;;;;;11.15;5.03;;;23.60;49.70;;;;;;5081376;28;20427;-66
2021/10/09 17:24:27;;;;;;;12.07;5.23;;;23.60;50.50;;;;;;5079994;28;20384;-66
2021/10/09 17:26:53;;;;;;;10.82;5.20;;;23.60;50.30;;;;;;5080059;28;20417;-65
2021/10/09 17:29:18;;;;;;;9.80;5.50;;;23.60;50.70;;;;;;5080475;28;20394;-65
2021/10/09 17:31:44;;;;;;;11.38;5.18;;;23.60;51.20;;;;;;5079529;28;20395;-64
2021/10/09 17:34:10;;;;;;;15.53;7.23;;;23.60;52.00;;;;;;5079922;28;21009;-65